sensor_id;sensor_type;location;lat;lon;timestamp;temperature;humidity
70421;SHT31;57848;51.938;15.520;2023-12-20T00:01:16;6.35;96.51
70421;SHT31;57848;51.938;15.520;2023-12-20T00:03:42;6.37;97.02
70421;SHT31;57848;51.938;15.520;2023-12-20T00:06:07;6.38;96.62
70421;SHT31;57848;51.938;15.520;2023-12-20T00:08:32;6.40;96.74
70421;SHT31;57848;51.938;15.520;2023-12-20T00:10:58;6.37;96.64
70421;SHT31;57848;51.938;15.520;2023-12-20T00:13:23;6.35;96.89
70421;SHT31;57848;51.938;15.520;2023-12-20T00:15:48;6.33;96.88
70421;SHT31;57848;51.938;15.520;2023-12-20T00:18:14;6.33;96.56
70421;SHT31;57848;51.938;15.520;2023-12-20T00:20:39;6.40;96.65
70421;SHT31;57848;51.938;15.520;2023-12-20T00:23:04;6.37;96.61
70421;SHT31;57848;51.938;15.520;2023-12-20T00:25:30;6.21;96.48
70421;SHT31;57848;51.938;15.520;2023-12-20T00:27:55;6.35;97.03
70421;SHT31;57848;51.938;15.520;2023-12-20T00:30:20;6.35;96.85
70421;SHT31;57848;51.938;15.520;2023-12-20T00:32:46;6.31;96.58
70421;SHT31;57848;51.938;15.520;2023-12-20T00:35:15;6.41;96.71
70421;SHT31;57848;51.938;15.520;2023-12-20T00:37:42;6.38;96.29
70421;SHT31;57848;51.938;15.520;2023-12-20T00:40:08;6.37;96.44
70421;SHT31;57848;51.938;15.520;2023-12-20T00:42:33;6.38;96.68
70421;SHT31;57848;51.938;15.520;2023-12-20T00:44:59;6.46;96.70
70421;SHT31;57848;51.938;15.520;2023-12-20T00:47:25;6.38;96.49
70421;SHT31;57848;51.938;15.520;2023-12-20T00:49:50;6.38;96.57
70421;SHT31;57848;51.938;15.520;2023-12-20T00:52:15;6.31;96.79
70421;SHT31;57848;51.938;15.520;2023-12-20T00:54:42;6.37;96.67
70421;SHT31;57848;51.938;15.520;2023-12-20T00:57:08;6.38;96.60
70421;SHT31;57848;51.938;15.520;2023-12-20T00:59:33;6.37;96.38
70421;SHT31;57848;51.938;15.520;2023-12-20T01:01:58;6.40;96.02
70421;SHT31;57848;51.938;15.520;2023-12-20T01:04:24;6.34;96.36
70421;SHT31;57848;51.938;15.520;2023-12-20T01:06:49;6.34;96.20
70421;SHT31;57848;51.938;15.520;2023-12-20T01:09:14;6.31;96.47
70421;SHT31;57848;51.938;15.520;2023-12-20T01:11:39;6.35;96.63
70421;SHT31;57848;51.938;15.520;2023-12-20T01:14:05;6.37;96.14
70421;SHT31;57848;51.938;15.520;2023-12-20T01:16:30;6.33;96.21
70421;SHT31;57848;51.938;15.520;2023-12-20T01:18:56;6.31;96.39
70421;SHT31;57848;51.938;15.520;2023-12-20T01:21:21;6.34;96.60
70421;SHT31;57848;51.938;15.520;2023-12-20T01:23:46;6.38;96.59
70421;SHT31;57848;51.938;15.520;2023-12-20T01:26:12;6.28;96.74
70421;SHT31;57848;51.938;15.520;2023-12-20T01:28:37;6.24;96.66
70421;SHT31;57848;51.938;15.520;2023-12-20T01:31:03;6.35;96.50
70421;SHT31;57848;51.938;15.520;2023-12-20T01:33:29;6.34;96.33
70421;SHT31;57848;51.938;15.520;2023-12-20T01:35:54;6.41;96.46
70421;SHT31;57848;51.938;15.520;2023-12-20T01:38:19;6.31;96.48
70421;SHT31;57848;51.938;15.520;2023-12-20T01:40:45;6.37;96.87
70421;SHT31;57848;51.938;15.520;2023-12-20T01:43:11;6.33;96.54
70421;SHT31;57848;51.938;15.520;2023-12-20T01:45:37;6.30;96.19
70421;SHT31;57848;51.938;15.520;2023-12-20T01:48:04;6.24;96.44
70421;SHT31;57848;51.938;15.520;2023-12-20T01:50:31;6.24;96.33
70421;SHT31;57848;51.938;15.520;2023-12-20T01:52:58;6.31;96.20
70421;SHT31;57848;51.938;15.520;2023-12-20T01:55:27;6.30;96.31
70421;SHT31;57848;51.938;15.520;2023-12-20T01:57:53;6.31;96.15
70421;SHT31;57848;51.938;15.520;2023-12-20T02:00:19;6.30;96.25
70421;SHT31;57848;51.938;15.520;2023-12-20T02:02:50;6.37;96.10
70421;SHT31;57848;51.938;15.520;2023-12-20T02:05:16;6.31;96.27
70421;SHT31;57848;51.938;15.520;2023-12-20T02:07:42;6.34;96.02
70421;SHT31;57848;51.938;15.520;2023-12-20T02:10:07;6.28;95.86
70421;SHT31;57848;51.938;15.520;2023-12-20T02:12:33;6.28;96.58
70421;SHT31;57848;51.938;15.520;2023-12-20T02:14:58;6.28;96.28
70421;SHT31;57848;51.938;15.520;2023-12-20T02:17:24;6.37;96.45
70421;SHT31;57848;51.938;15.520;2023-12-20T02:19:50;6.44;96.28
70421;SHT31;57848;51.938;15.520;2023-12-20T02:22:15;6.31;96.37
70421;SHT31;57848;51.938;15.520;2023-12-20T02:24:41;6.23;96.23
70421;SHT31;57848;51.938;15.520;2023-12-20T02:27:07;6.30;96.25
70421;SHT31;57848;51.938;15.520;2023-12-20T02:29:36;6.28;96.09
70421;SHT31;57848;51.938;15.520;2023-12-20T02:32:01;6.23;95.97
70421;SHT31;57848;51.938;15.520;2023-12-20T02:34:28;6.24;96.10
70421;SHT31;57848;51.938;15.520;2023-12-20T02:36:53;6.18;96.08
70421;SHT31;57848;51.938;15.520;2023-12-20T02:39:19;6.24;96.23
70421;SHT31;57848;51.938;15.520;2023-12-20T02:41:44;6.25;96.52
70421;SHT31;57848;51.938;15.520;2023-12-20T02:44:10;6.25;96.04
70421;SHT31;57848;51.938;15.520;2023-12-20T02:46:35;6.27;96.07
70421;SHT31;57848;51.938;15.520;2023-12-20T02:49:00;6.27;96.13
70421;SHT31;57848;51.938;15.520;2023-12-20T02:51:26;6.25;96.12
70421;SHT31;57848;51.938;15.520;2023-12-20T02:53:51;6.23;96.37
70421;SHT31;57848;51.938;15.520;2023-12-20T02:56:16;6.27;96.25
70421;SHT31;57848;51.938;15.520;2023-12-20T02:58:42;6.23;96.22
70421;SHT31;57848;51.938;15.520;2023-12-20T03:01:07;6.28;96.13
70421;SHT31;57848;51.938;15.520;2023-12-20T03:03:32;6.27;96.24
70421;SHT31;57848;51.938;15.520;2023-12-20T03:05:58;6.25;95.97
70421;SHT31;57848;51.938;15.520;2023-12-20T03:08:23;6.24;96.14
70421;SHT31;57848;51.938;15.520;2023-12-20T03:10:48;6.18;95.96
70421;SHT31;57848;51.938;15.520;2023-12-20T03:13:14;6.18;95.80
70421;SHT31;57848;51.938;15.520;2023-12-20T03:15:40;6.21;96.40
70421;SHT31;57848;51.938;15.520;2023-12-20T03:18:05;6.24;96.46
70421;SHT31;57848;51.938;15.520;2023-12-20T03:20:31;6.24;96.24
70421;SHT31;57848;51.938;15.520;2023-12-20T03:23:01;6.18;96.19
70421;SHT31;57848;51.938;15.520;2023-12-20T03:25:27;6.21;96.42
70421;SHT31;57848;51.938;15.520;2023-12-20T03:27:52;6.27;96.41
70421;SHT31;57848;51.938;15.520;2023-12-20T03:30:18;6.25;96.07
70421;SHT31;57848;51.938;15.520;2023-12-20T03:32:44;6.23;96.04
70421;SHT31;57848;51.938;15.520;2023-12-20T03:35:09;6.24;95.93
70421;SHT31;57848;51.938;15.520;2023-12-20T03:37:35;6.13;95.66
70421;SHT31;57848;51.938;15.520;2023-12-20T03:40:00;6.25;96.05
70421;SHT31;57848;51.938;15.520;2023-12-20T03:42:26;6.23;96.19
70421;SHT31;57848;51.938;15.520;2023-12-20T03:44:51;6.14;96.33
70421;SHT31;57848;51.938;15.520;2023-12-20T03:47:16;6.25;96.35
70421;SHT31;57848;51.938;15.520;2023-12-20T03:49:42;6.23;96.36
70421;SHT31;57848;51.938;15.520;2023-12-20T03:52:07;6.27;95.89
70421;SHT31;57848;51.938;15.520;2023-12-20T03:54:34;6.21;95.83
70421;SHT31;57848;51.938;15.520;2023-12-20T03:56:59;6.20;96.00
70421;SHT31;57848;51.938;15.520;2023-12-20T03:59:25;6.18;96.02
70421;SHT31;57848;51.938;15.520;2023-12-20T04:01:50;6.25;96.09
70421;SHT31;57848;51.938;15.520;2023-12-20T04:04:15;6.18;96.15
70421;SHT31;57848;51.938;15.520;2023-12-20T04:06:41;6.20;96.11
70421;SHT31;57848;51.938;15.520;2023-12-20T04:09:06;6.23;96.15
70421;SHT31;57848;51.938;15.520;2023-12-20T04:11:34;6.20;96.00
70421;SHT31;57848;51.938;15.520;2023-12-20T04:13:59;6.10;96.08
70421;SHT31;57848;51.938;15.520;2023-12-20T04:16:26;6.17;96.37
70421;SHT31;57848;51.938;15.520;2023-12-20T04:18:51;6.16;96.76
70421;SHT31;57848;51.938;15.520;2023-12-20T04:21:17;6.14;96.54
70421;SHT31;57848;51.938;15.520;2023-12-20T04:23:43;6.18;96.32
70421;SHT31;57848;51.938;15.520;2023-12-20T04:26:09;6.18;96.54
70421;SHT31;57848;51.938;15.520;2023-12-20T04:28:34;6.14;96.43
70421;SHT31;57848;51.938;15.520;2023-12-20T04:30:59;6.14;96.59
70421;SHT31;57848;51.938;15.520;2023-12-20T04:33:24;6.09;96.59
70421;SHT31;57848;51.938;15.520;2023-12-20T04:35:50;6.13;96.99
70421;SHT31;57848;51.938;15.520;2023-12-20T04:38:15;6.07;96.73
70421;SHT31;57848;51.938;15.520;2023-12-20T04:40:40;6.07;96.93
70421;SHT31;57848;51.938;15.520;2023-12-20T04:43:07;6.03;97.01
70421;SHT31;57848;51.938;15.520;2023-12-20T04:45:32;6.06;96.85
70421;SHT31;57848;51.938;15.520;2023-12-20T04:47:57;6.10;96.65
70421;SHT31;57848;51.938;15.520;2023-12-20T04:50:23;6.02;96.54
70421;SHT31;57848;51.938;15.520;2023-12-20T04:52:48;6.10;96.75
70421;SHT31;57848;51.938;15.520;2023-12-20T04:55:13;6.02;96.50
70421;SHT31;57848;51.938;15.520;2023-12-20T04:57:39;6.00;96.44
70421;SHT31;57848;51.938;15.520;2023-12-20T05:00:05;6.06;96.69
70421;SHT31;57848;51.938;15.520;2023-12-20T05:02:31;6.10;96.54
70421;SHT31;57848;51.938;15.520;2023-12-20T05:04:56;6.06;96.56
70421;SHT31;57848;51.938;15.520;2023-12-20T05:07:21;6.07;96.33
70421;SHT31;57848;51.938;15.520;2023-12-20T05:09:47;6.13;96.40
70421;SHT31;57848;51.938;15.520;2023-12-20T05:12:12;6.13;96.24
70421;SHT31;57848;51.938;15.520;2023-12-20T05:14:37;6.13;96.66
70421;SHT31;57848;51.938;15.520;2023-12-20T05:17:03;6.13;96.65
70421;SHT31;57848;51.938;15.520;2023-12-20T05:19:28;6.07;96.49
70421;SHT31;57848;51.938;15.520;2023-12-20T05:21:54;6.10;96.41
70421;SHT31;57848;51.938;15.520;2023-12-20T05:24:19;6.10;96.25
70421;SHT31;57848;51.938;15.520;2023-12-20T05:26:44;6.04;96.37
70421;SHT31;57848;51.938;15.520;2023-12-20T05:29:10;6.07;96.72
70421;SHT31;57848;51.938;15.520;2023-12-20T05:31:35;6.04;96.78
70421;SHT31;57848;51.938;15.520;2023-12-20T05:34:01;6.13;96.93
70421;SHT31;57848;51.938;15.520;2023-12-20T05:36:26;6.07;96.31
70421;SHT31;57848;51.938;15.520;2023-12-20T05:38:51;6.09;96.48
70421;SHT31;57848;51.938;15.520;2023-12-20T05:41:17;6.06;96.32
70421;SHT31;57848;51.938;15.520;2023-12-20T05:43:42;6.10;96.37
70421;SHT31;57848;51.938;15.520;2023-12-20T05:46:10;6.14;96.50
70421;SHT31;57848;51.938;15.520;2023-12-20T05:48:36;6.14;96.35
70421;SHT31;57848;51.938;15.520;2023-12-20T05:51:01;6.03;96.35
70421;SHT31;57848;51.938;15.520;2023-12-20T05:53:27;6.07;96.21
70421;SHT31;57848;51.938;15.520;2023-12-20T05:55:52;6.09;96.55
70421;SHT31;57848;51.938;15.520;2023-12-20T05:58:17;6.09;96.23
70421;SHT31;57848;51.938;15.520;2023-12-20T06:00:43;6.07;96.37
70421;SHT31;57848;51.938;15.520;2023-12-20T06:03:08;6.09;96.10
70421;SHT31;57848;51.938;15.520;2023-12-20T06:05:33;6.10;96.67
70421;SHT31;57848;51.938;15.520;2023-12-20T06:07:59;6.10;96.03
70421;SHT31;57848;51.938;15.520;2023-12-20T06:10:28;6.07;96.26
70421;SHT31;57848;51.938;15.520;2023-12-20T06:12:53;6.07;96.06
70421;SHT31;57848;51.938;15.520;2023-12-20T06:15:19;6.07;96.01
70421;SHT31;57848;51.938;15.520;2023-12-20T06:17:44;6.07;95.88
70421;SHT31;57848;51.938;15.520;2023-12-20T06:20:11;6.07;96.14
70421;SHT31;57848;51.938;15.520;2023-12-20T06:22:38;6.06;95.68
70421;SHT31;57848;51.938;15.520;2023-12-20T06:25:04;6.06;95.99
70421;SHT31;57848;51.938;15.520;2023-12-20T06:27:30;5.97;96.19
70421;SHT31;57848;51.938;15.520;2023-12-20T06:29:57;6.04;96.15
70421;SHT31;57848;51.938;15.520;2023-12-20T06:32:23;5.99;95.85
70421;SHT31;57848;51.938;15.520;2023-12-20T06:34:49;6.02;96.05
70421;SHT31;57848;51.938;15.520;2023-12-20T06:37:15;6.04;95.90
70421;SHT31;57848;51.938;15.520;2023-12-20T06:39:40;6.00;95.72
70421;SHT31;57848;51.938;15.520;2023-12-20T06:42:05;6.02;95.79
70421;SHT31;57848;51.938;15.520;2023-12-20T06:44:31;5.97;95.87
70421;SHT31;57848;51.938;15.520;2023-12-20T06:46:57;5.93;95.97
70421;SHT31;57848;51.938;15.520;2023-12-20T06:49:22;5.97;95.88
70421;SHT31;57848;51.938;15.520;2023-12-20T06:51:47;5.92;96.02
70421;SHT31;57848;51.938;15.520;2023-12-20T06:54:13;5.96;95.78
70421;SHT31;57848;51.938;15.520;2023-12-20T06:56:38;5.93;95.77
70421;SHT31;57848;51.938;15.520;2023-12-20T06:59:03;5.94;96.05
70421;SHT31;57848;51.938;15.520;2023-12-20T07:01:29;6.02;95.58
70421;SHT31;57848;51.938;15.520;2023-12-20T07:03:54;6.00;95.80
70421;SHT31;57848;51.938;15.520;2023-12-20T07:06:19;5.97;95.74
70421;SHT31;57848;51.938;15.520;2023-12-20T07:08:45;6.00;95.43
70421;SHT31;57848;51.938;15.520;2023-12-20T07:11:11;6.03;95.24
70421;SHT31;57848;51.938;15.520;2023-12-20T07:13:36;6.06;94.95
70421;SHT31;57848;51.938;15.520;2023-12-20T07:16:02;6.00;95.29
70421;SHT31;57848;51.938;15.520;2023-12-20T07:18:28;5.96;95.23
70421;SHT31;57848;51.938;15.520;2023-12-20T07:20:53;6.00;95.18
70421;SHT31;57848;51.938;15.520;2023-12-20T07:23:19;5.99;95.03
70421;SHT31;57848;51.938;15.520;2023-12-20T07:25:45;6.03;95.18
70421;SHT31;57848;51.938;15.520;2023-12-20T07:28:10;5.99;95.24
70421;SHT31;57848;51.938;15.520;2023-12-20T07:30:36;5.93;95.10
70421;SHT31;57848;51.938;15.520;2023-12-20T07:33:01;6.00;95.29
70421;SHT31;57848;51.938;15.520;2023-12-20T07:35:27;6.02;95.03
70421;SHT31;57848;51.938;15.520;2023-12-20T07:37:53;6.03;94.50
70421;SHT31;57848;51.938;15.520;2023-12-20T07:40:18;5.90;94.84
70421;SHT31;57848;51.938;15.520;2023-12-20T07:42:43;5.90;95.13
70421;SHT31;57848;51.938;15.520;2023-12-20T07:45:09;5.93;95.05
70421;SHT31;57848;51.938;15.520;2023-12-20T07:47:35;5.93;94.97
70421;SHT31;57848;51.938;15.520;2023-12-20T07:50:01;5.90;95.30
70421;SHT31;57848;51.938;15.520;2023-12-20T07:52:28;5.97;95.12
70421;SHT31;57848;51.938;15.520;2023-12-20T07:54:54;5.90;94.10
70421;SHT31;57848;51.938;15.520;2023-12-20T07:57:19;5.80;94.69
70421;SHT31;57848;51.938;15.520;2023-12-20T07:59:44;5.79;94.70
70421;SHT31;57848;51.938;15.520;2023-12-20T08:02:10;5.75;94.72
70421;SHT31;57848;51.938;15.520;2023-12-20T08:04:35;5.76;93.88
70421;SHT31;57848;51.938;15.520;2023-12-20T08:07:00;5.76;94.42
70421;SHT31;57848;51.938;15.520;2023-12-20T08:09:26;5.73;94.14
70421;SHT31;57848;51.938;15.520;2023-12-20T08:11:51;5.59;94.34
70421;SHT31;57848;51.938;15.520;2023-12-20T08:14:16;5.51;94.40
70421;SHT31;57848;51.938;15.520;2023-12-20T08:16:42;5.56;94.49
70421;SHT31;57848;51.938;15.520;2023-12-20T08:19:07;5.51;94.88
70421;SHT31;57848;51.938;15.520;2023-12-20T08:21:33;5.48;94.89
70421;SHT31;57848;51.938;15.520;2023-12-20T08:23:58;5.51;94.67
70421;SHT31;57848;51.938;15.520;2023-12-20T08:26:26;5.52;94.52
70421;SHT31;57848;51.938;15.520;2023-12-20T08:28:51;5.54;94.36
70421;SHT31;57848;51.938;15.520;2023-12-20T08:31:17;5.39;94.57
70421;SHT31;57848;51.938;15.520;2023-12-20T08:33:47;5.36;94.23
70421;SHT31;57848;51.938;15.520;2023-12-20T08:36:13;5.31;94.50
70421;SHT31;57848;51.938;15.520;2023-12-20T08:38:38;5.35;94.38
70421;SHT31;57848;51.938;15.520;2023-12-20T08:41:04;5.38;93.88
70421;SHT31;57848;51.938;15.520;2023-12-20T08:43:34;5.56;93.69
70421;SHT31;57848;51.938;15.520;2023-12-20T08:45:59;5.63;93.64
70421;SHT31;57848;51.938;15.520;2023-12-20T08:48:25;5.72;93.23
70421;SHT31;57848;51.938;15.520;2023-12-20T08:50:50;5.76;92.96
70421;SHT31;57848;51.938;15.520;2023-12-20T08:53:18;5.75;92.82
70421;SHT31;57848;51.938;15.520;2023-12-20T08:55:44;5.85;91.91
70421;SHT31;57848;51.938;15.520;2023-12-20T08:58:09;5.97;91.10
70421;SHT31;57848;51.938;15.520;2023-12-20T09:00:35;6.13;91.12
70421;SHT31;57848;51.938;15.520;2023-12-20T09:03:01;6.21;91.68
70421;SHT31;57848;51.938;15.520;2023-12-20T09:05:27;6.24;90.97
70421;SHT31;57848;51.938;15.520;2023-12-20T09:07:53;6.31;91.14
70421;SHT31;57848;51.938;15.520;2023-12-20T09:10:18;6.25;90.65
70421;SHT31;57848;51.938;15.520;2023-12-20T09:12:50;6.16;89.92
70421;SHT31;57848;51.938;15.520;2023-12-20T09:15:15;6.23;90.66
70421;SHT31;57848;51.938;15.520;2023-12-20T09:17:40;6.18;90.97
70421;SHT31;57848;51.938;15.520;2023-12-20T09:20:07;6.13;90.20
70421;SHT31;57848;51.938;15.520;2023-12-20T09:22:33;6.13;90.52
70421;SHT31;57848;51.938;15.520;2023-12-20T09:24:59;6.06;90.28
70421;SHT31;57848;51.938;15.520;2023-12-20T09:27:25;6.14;91.44
70421;SHT31;57848;51.938;15.520;2023-12-20T09:29:50;6.23;90.75
70421;SHT31;57848;51.938;15.520;2023-12-20T09:32:15;6.16;90.82
70421;SHT31;57848;51.938;15.520;2023-12-20T09:34:41;6.23;90.49
70421;SHT31;57848;51.938;15.520;2023-12-20T09:37:07;6.16;90.46
70421;SHT31;57848;51.938;15.520;2023-12-20T09:39:33;6.02;90.25
70421;SHT31;57848;51.938;15.520;2023-12-20T09:42:05;6.06;90.42
70421;SHT31;57848;51.938;15.520;2023-12-20T09:44:31;6.07;90.86
70421;SHT31;57848;51.938;15.520;2023-12-20T09:46:57;6.11;90.54
70421;SHT31;57848;51.938;15.520;2023-12-20T09:49:22;6.14;89.91
70421;SHT31;57848;51.938;15.520;2023-12-20T09:51:50;6.16;90.30
70421;SHT31;57848;51.938;15.520;2023-12-20T09:54:16;6.13;90.19
70421;SHT31;57848;51.938;15.520;2023-12-20T09:56:42;6.10;90.32
70421;SHT31;57848;51.938;15.520;2023-12-20T09:59:08;6.07;90.61
70421;SHT31;57848;51.938;15.520;2023-12-20T10:01:34;6.11;90.57
70421;SHT31;57848;51.938;15.520;2023-12-20T10:04:00;6.11;89.97
70421;SHT31;57848;51.938;15.520;2023-12-20T10:06:25;6.18;89.92
70421;SHT31;57848;51.938;15.520;2023-12-20T10:08:51;6.14;89.55
70421;SHT31;57848;51.938;15.520;2023-12-20T10:11:16;6.21;90.04
70421;SHT31;57848;51.938;15.520;2023-12-20T10:13:42;6.14;89.87
70421;SHT31;57848;51.938;15.520;2023-12-20T10:16:08;6.18;90.57
70421;SHT31;57848;51.938;15.520;2023-12-20T10:18:34;6.16;90.35
70421;SHT31;57848;51.938;15.520;2023-12-20T10:21:00;6.06;90.26
70421;SHT31;57848;51.938;15.520;2023-12-20T10:23:25;6.09;90.92
70421;SHT31;57848;51.938;15.520;2023-12-20T10:26:00;5.96;92.82
70421;SHT31;57848;51.938;15.520;2023-12-20T10:28:26;5.92;93.27
70421;SHT31;57848;51.938;15.520;2023-12-20T10:30:54;5.76;92.83
70421;SHT31;57848;51.938;15.520;2023-12-20T10:33:26;5.77;93.06
70421;SHT31;57848;51.938;15.520;2023-12-20T10:35:53;5.70;93.20
70421;SHT31;57848;51.938;15.520;2023-12-20T10:38:19;5.72;93.28
70421;SHT31;57848;51.938;15.520;2023-12-20T10:40:45;5.67;93.40
70421;SHT31;57848;51.938;15.520;2023-12-20T10:43:11;5.62;93.44
70421;SHT31;57848;51.938;15.520;2023-12-20T10:45:37;5.70;94.00
70421;SHT31;57848;51.938;15.520;2023-12-20T10:48:02;5.73;93.69
70421;SHT31;57848;51.938;15.520;2023-12-20T10:50:29;5.72;92.63
70421;SHT31;57848;51.938;15.520;2023-12-20T10:52:55;5.77;92.49
70421;SHT31;57848;51.938;15.520;2023-12-20T10:55:24;5.87;93.37
70421;SHT31;57848;51.938;15.520;2023-12-20T10:58:06;5.92;92.65
70421;SHT31;57848;51.938;15.520;2023-12-20T11:00:32;5.89;91.71
70421;SHT31;57848;51.938;15.520;2023-12-20T11:03:00;5.89;91.63
70421;SHT31;57848;51.938;15.520;2023-12-20T11:05:36;6.06;91.68
70421;SHT31;57848;51.938;15.520;2023-12-20T11:08:09;6.46;90.18
70421;SHT31;57848;51.938;15.520;2023-12-20T11:13:10;6.68;90.05
70421;SHT31;57848;51.938;15.520;2023-12-20T11:15:37;6.65;89.49
70421;SHT31;57848;51.938;15.520;2023-12-20T11:18:03;6.62;88.76
70421;SHT31;57848;51.938;15.520;2023-12-20T11:20:40;6.74;89.59
70421;SHT31;57848;51.938;15.520;2023-12-20T11:23:06;6.69;89.67
70421;SHT31;57848;51.938;15.520;2023-12-20T11:25:55;6.61;89.29
70421;SHT31;57848;51.938;15.520;2023-12-20T11:28:24;6.59;89.22
70421;SHT31;57848;51.938;15.520;2023-12-20T11:30:52;6.58;89.22
70421;SHT31;57848;51.938;15.520;2023-12-20T11:33:25;6.59;89.50
70421;SHT31;57848;51.938;15.520;2023-12-20T11:35:51;6.48;88.85
70421;SHT31;57848;51.938;15.520;2023-12-20T11:38:16;6.49;89.35
70421;SHT31;57848;51.938;15.520;2023-12-20T11:40:42;6.51;89.22
70421;SHT31;57848;51.938;15.520;2023-12-20T11:43:08;6.41;88.87
70421;SHT31;57848;51.938;15.520;2023-12-20T11:45:34;6.38;89.60
70421;SHT31;57848;51.938;15.520;2023-12-20T11:48:01;6.44;89.75
70421;SHT31;57848;51.938;15.520;2023-12-20T11:50:27;6.48;89.57
70421;SHT31;57848;51.938;15.520;2023-12-20T11:52:54;6.48;89.68
70421;SHT31;57848;51.938;15.520;2023-12-20T11:55:21;6.46;89.47
70421;SHT31;57848;51.938;15.520;2023-12-20T11:57:46;6.45;88.52
70421;SHT31;57848;51.938;15.520;2023-12-20T12:00:13;6.65;88.91
70421;SHT31;57848;51.938;15.520;2023-12-20T12:02:39;6.62;88.63
70421;SHT31;57848;51.938;15.520;2023-12-20T12:05:05;6.62;87.87
70421;SHT31;57848;51.938;15.520;2023-12-20T12:07:31;6.48;88.94
70421;SHT31;57848;51.938;15.520;2023-12-20T12:09:56;6.54;89.05
70421;SHT31;57848;51.938;15.520;2023-12-20T12:12:22;6.46;87.95
70421;SHT31;57848;51.938;15.520;2023-12-20T12:14:49;6.49;87.49
70421;SHT31;57848;51.938;15.520;2023-12-20T12:17:14;6.48;87.81
70421;SHT31;57848;51.938;15.520;2023-12-20T12:19:41;6.48;87.53
70421;SHT31;57848;51.938;15.520;2023-12-20T12:22:11;6.46;88.82
70421;SHT31;57848;51.938;15.520;2023-12-20T12:24:41;6.52;87.72
70421;SHT31;57848;51.938;15.520;2023-12-20T12:27:07;6.48;87.46
70421;SHT31;57848;51.938;15.520;2023-12-20T12:29:33;6.55;88.16
70421;SHT31;57848;51.938;15.520;2023-12-20T12:31:59;6.44;87.53
70421;SHT31;57848;51.938;15.520;2023-12-20T12:34:27;6.45;87.07
70421;SHT31;57848;51.938;15.520;2023-12-20T12:36:53;6.49;87.39
70421;SHT31;57848;51.938;15.520;2023-12-20T12:39:18;6.40;87.33
70421;SHT31;57848;51.938;15.520;2023-12-20T12:41:44;6.48;87.44
70421;SHT31;57848;51.938;15.520;2023-12-20T12:44:09;6.45;85.98
70421;SHT31;57848;51.938;15.520;2023-12-20T12:46:34;6.42;86.19
70421;SHT31;57848;51.938;15.520;2023-12-20T12:49:00;6.45;86.68
70421;SHT31;57848;51.938;15.520;2023-12-20T12:51:25;6.51;86.67
70421;SHT31;57848;51.938;15.520;2023-12-20T12:53:51;6.44;86.19
70421;SHT31;57848;51.938;15.520;2023-12-20T12:56:17;6.42;86.49
70421;SHT31;57848;51.938;15.520;2023-12-20T12:58:42;6.45;85.91
70421;SHT31;57848;51.938;15.520;2023-12-20T13:01:08;6.46;85.95
70421;SHT31;57848;51.938;15.520;2023-12-20T13:03:33;6.41;85.69
70421;SHT31;57848;51.938;15.520;2023-12-20T13:05:59;6.37;86.07
70421;SHT31;57848;51.938;15.520;2023-12-20T13:08:24;6.35;85.78
70421;SHT31;57848;51.938;15.520;2023-12-20T13:10:50;6.41;86.16
70421;SHT31;57848;51.938;15.520;2023-12-20T13:13:15;6.38;85.38
70421;SHT31;57848;51.938;15.520;2023-12-20T13:15:41;6.37;85.10
70421;SHT31;57848;51.938;15.520;2023-12-20T13:18:06;6.35;84.75
70421;SHT31;57848;51.938;15.520;2023-12-20T13:20:32;6.45;85.59
70421;SHT31;57848;51.938;15.520;2023-12-20T13:22:58;6.40;84.68
70421;SHT31;57848;51.938;15.520;2023-12-20T13:25:24;6.42;84.93
70421;SHT31;57848;51.938;15.520;2023-12-20T13:27:49;6.52;84.85
70421;SHT31;57848;51.938;15.520;2023-12-20T13:30:16;6.54;84.67
70421;SHT31;57848;51.938;15.520;2023-12-20T13:32:42;6.51;84.39
70421;SHT31;57848;51.938;15.520;2023-12-20T13:35:07;6.51;83.84
70421;SHT31;57848;51.938;15.520;2023-12-20T13:37:33;6.49;84.25
70421;SHT31;57848;51.938;15.520;2023-12-20T13:39:59;6.49;84.17
70421;SHT31;57848;51.938;15.520;2023-12-20T13:42:24;6.49;85.32
70421;SHT31;57848;51.938;15.520;2023-12-20T13:44:52;6.51;84.39
70421;SHT31;57848;51.938;15.520;2023-12-20T13:47:18;6.52;85.07
70421;SHT31;57848;51.938;15.520;2023-12-20T13:49:44;6.49;85.17
70421;SHT31;57848;51.938;15.520;2023-12-20T13:52:10;6.49;85.54
70421;SHT31;57848;51.938;15.520;2023-12-20T13:54:36;6.49;86.30
70421;SHT31;57848;51.938;15.520;2023-12-20T13:57:01;6.44;85.49
70421;SHT31;57848;51.938;15.520;2023-12-20T13:59:28;6.40;85.06
70421;SHT31;57848;51.938;15.520;2023-12-20T14:01:53;6.37;85.24
70421;SHT31;57848;51.938;15.520;2023-12-20T14:04:19;6.38;85.10
70421;SHT31;57848;51.938;15.520;2023-12-20T14:06:45;6.40;86.03
70421;SHT31;57848;51.938;15.520;2023-12-20T14:09:10;6.44;84.68
70421;SHT31;57848;51.938;15.520;2023-12-20T14:11:37;6.45;84.23
70421;SHT31;57848;51.938;15.520;2023-12-20T14:14:07;6.44;84.90
70421;SHT31;57848;51.938;15.520;2023-12-20T14:16:33;6.55;84.31
70421;SHT31;57848;51.938;15.520;2023-12-20T14:18:58;6.51;83.83
70421;SHT31;57848;51.938;15.520;2023-12-20T14:21:24;6.55;84.33
70421;SHT31;57848;51.938;15.520;2023-12-20T14:23:49;6.48;84.52
70421;SHT31;57848;51.938;15.520;2023-12-20T14:26:14;6.48;84.47
70421;SHT31;57848;51.938;15.520;2023-12-20T14:28:41;6.45;84.02
70421;SHT31;57848;51.938;15.520;2023-12-20T14:31:06;6.46;84.88
70421;SHT31;57848;51.938;15.520;2023-12-20T14:33:32;6.46;83.38
70421;SHT31;57848;51.938;15.520;2023-12-20T14:35:57;6.44;83.39
70421;SHT31;57848;51.938;15.520;2023-12-20T14:38:22;6.48;83.29
70421;SHT31;57848;51.938;15.520;2023-12-20T14:40:48;6.48;83.67
70421;SHT31;57848;51.938;15.520;2023-12-20T14:43:13;6.41;83.55
70421;SHT31;57848;51.938;15.520;2023-12-20T14:45:38;6.44;83.79
70421;SHT31;57848;51.938;15.520;2023-12-20T14:48:04;6.48;83.94
70421;SHT31;57848;51.938;15.520;2023-12-20T14:50:30;6.46;83.32
70421;SHT31;57848;51.938;15.520;2023-12-20T14:52:55;6.41;84.53
70421;SHT31;57848;51.938;15.520;2023-12-20T14:55:21;6.48;83.66
70421;SHT31;57848;51.938;15.520;2023-12-20T14:57:46;6.44;84.21
70421;SHT31;57848;51.938;15.520;2023-12-20T15:00:12;6.52;83.80
70421;SHT31;57848;51.938;15.520;2023-12-20T15:02:41;6.44;84.92
70421;SHT31;57848;51.938;15.520;2023-12-20T15:05:06;6.44;84.96
70421;SHT31;57848;51.938;15.520;2023-12-20T15:07:32;6.35;84.86
70421;SHT31;57848;51.938;15.520;2023-12-20T15:09:57;6.30;85.29
70421;SHT31;57848;51.938;15.520;2023-12-20T15:12:22;6.30;85.80
70421;SHT31;57848;51.938;15.520;2023-12-20T15:14:48;6.27;84.99
70421;SHT31;57848;51.938;15.520;2023-12-20T15:17:13;6.24;85.61
70421;SHT31;57848;51.938;15.520;2023-12-20T15:19:39;6.20;85.89
70421;SHT31;57848;51.938;15.520;2023-12-20T15:22:04;6.23;86.21
70421;SHT31;57848;51.938;15.520;2023-12-20T15:24:30;6.21;87.08